createdAt,value
2023-01-11T00:00:39.832Z,95586.06
2023-01-11T00:03:07.025Z,95578.97
2023-01-11T00:05:44.225Z,95567.22
2023-01-11T00:08:11.842Z,95562.25
2023-01-11T00:10:39.816Z,95558.19
2023-01-11T00:13:06.878Z,95563.38
2023-01-11T00:15:36.104Z,95556.50
2023-01-11T00:18:03.148Z,95562.75
2023-01-11T00:20:29.780Z,95561.53
2023-01-11T00:22:56.311Z,95561.53
2023-01-11T00:25:22.901Z,95561.41
2023-01-11T00:27:49.697Z,95556.59
2023-01-11T00:30:17.802Z,95555.19
2023-01-11T00:32:44.434Z,95548.19
2023-01-11T00:35:10.969Z,95547.81
2023-01-11T00:37:37.619Z,95546.38
2023-01-11T00:40:04.625Z,95541.84
2023-01-11T00:42:51.517Z,95540.06
2023-01-11T00:45:36.837Z,95532.63
2023-01-11T00:48:05.968Z,95527.16
2023-01-11T00:50:38.017Z,95534.66
2023-01-11T00:53:05.363Z,95531.47
2023-01-11T00:55:32.007Z,95531.66
2023-01-11T00:57:59.240Z,95528.22
2023-01-11T01:00:26.859Z,95533.25
2023-01-11T01:02:53.656Z,95532.34
2023-01-11T01:05:20.510Z,95536.75
2023-01-11T01:07:47.430Z,95536.03
2023-01-11T01:10:16.053Z,95541.06
2023-01-11T01:13:01.206Z,95548.19
2023-01-11T01:15:28.094Z,95543.03
2023-01-11T01:17:55.814Z,95546.84
2023-01-11T01:20:24.177Z,95543.13
2023-01-11T01:22:50.839Z,95551.81
2023-01-11T01:25:17.832Z,95551.91
2023-01-11T01:27:44.545Z,95549.63
2023-01-11T01:30:11.633Z,95546.53
2023-01-11T01:32:38.140Z,95541.44
2023-01-11T01:35:05.057Z,95542.22
2023-01-11T01:37:31.835Z,95553.19
2023-01-11T01:39:58.422Z,95544.69
2023-01-11T01:42:25.259Z,95548.81
2023-01-11T01:44:54.744Z,95548.22
2023-01-11T01:47:27.107Z,95544.34
2023-01-11T01:49:54.270Z,95545.63
2023-01-11T01:52:21.433Z,95534.69
2023-01-11T01:54:49.294Z,95535.59
2023-01-11T01:57:26.848Z,95535.16
2023-01-11T01:59:57.056Z,95532.63
2023-01-11T02:02:25.067Z,95520.84
2023-01-11T02:04:56.276Z,95515.94
2023-01-11T02:07:28.756Z,95514.59
2023-01-11T02:10:04.801Z,95517.84
2023-01-11T02:12:43.474Z,95513.44
2023-01-11T02:15:11.555Z,95519.34
2023-01-11T02:17:38.100Z,95519.53
2023-01-11T02:20:25.354Z,95519.28
2023-01-11T02:23:20.421Z,95509.31
2023-01-11T02:26:27.266Z,95504.53
2023-01-11T02:29:35.806Z,95493.94
2023-01-11T02:32:23.357Z,95498.72
2023-01-11T02:35:16.865Z,95495.41
2023-01-11T02:38:04.161Z,95488.03
2023-01-11T02:40:42.228Z,95483.84
2023-01-11T02:43:52.105Z,95481.91
2023-01-11T02:46:40.564Z,95482.16
2023-01-11T02:49:42.669Z,95491.34
2023-01-11T02:52:14.415Z,95478.81
2023-01-11T02:54:45.323Z,95470.16
2023-01-11T02:57:14.008Z,95475.78
2023-01-11T02:59:41.898Z,95467.72
2023-01-11T03:02:08.493Z,95464.97
2023-01-11T03:04:37.208Z,95459.94
2023-01-11T03:07:24.108Z,95461.56
2023-01-11T03:10:22.118Z,95448.56
2023-01-11T03:12:59.525Z,95451.41
2023-01-11T03:16:00.164Z,95448.97
2023-01-11T03:18:37.361Z,95450.69
2023-01-11T03:21:39.058Z,95439.81
2023-01-11T03:24:48.032Z,95439.63
2023-01-11T03:27:21.746Z,95436.28
2023-01-11T03:29:54.161Z,95437.66
2023-01-11T03:33:13.201Z,95425.47
2023-01-11T03:35:42.284Z,95420.69
2023-01-11T03:38:20.326Z,95420.94
2023-01-11T03:40:55.182Z,95418.34
2023-01-11T03:43:24.101Z,95414.47
2023-01-11T03:46:14.681Z,95409.81
2023-01-11T03:48:57.553Z,95412.97
2023-01-11T03:51:27.920Z,95401.63
2023-01-11T03:53:58.973Z,95393.84
2023-01-11T03:56:33.878Z,95395.47
2023-01-11T03:59:01.583Z,95384.88
2023-01-11T04:01:28.245Z,95381.88
2023-01-11T04:03:54.832Z,95382.50
2023-01-11T04:06:22.253Z,95374.09
2023-01-11T04:08:49.020Z,95378.47
2023-01-11T04:11:15.692Z,95383.84
2023-01-11T04:13:42.248Z,95382.28
2023-01-11T04:16:08.869Z,95384.88
2023-01-11T04:18:35.490Z,95386.72
2023-01-11T04:21:02.099Z,95386.84
2023-01-11T04:23:28.637Z,95388.41
2023-01-11T04:25:55.258Z,95384.00
2023-01-11T04:28:21.812Z,95380.69
2023-01-11T04:30:48.373Z,95386.06
2023-01-11T04:33:14.916Z,95382.91
2023-01-11T04:35:42.099Z,95380.59
2023-01-11T04:38:08.638Z,95379.88
2023-01-11T04:40:35.224Z,95381.94
2023-01-11T04:43:02.402Z,95374.78
2023-01-11T04:45:29.888Z,95376.03
2023-01-11T04:47:57.457Z,95371.78
2023-01-11T04:50:25.512Z,95364.06
2023-01-11T04:52:52.491Z,95365.16
2023-01-11T04:55:19.808Z,95359.94
2023-01-11T04:57:47.124Z,95358.56
2023-01-11T05:00:15.727Z,95354.19
2023-01-11T05:02:42.255Z,95350.72
2023-01-11T05:05:10.739Z,95358.03
2023-01-11T05:07:38.760Z,95347.03
2023-01-11T05:10:06.190Z,95343.03
2023-01-11T05:12:32.713Z,95349.72
2023-01-11T05:14:59.341Z,95344.91
2023-01-11T05:17:25.908Z,95346.84
2023-01-11T05:19:52.490Z,95350.50
2023-01-11T05:22:19.021Z,95337.56
2023-01-11T05:24:45.586Z,95344.06
2023-01-11T05:27:12.180Z,95335.34
2023-01-11T05:29:38.694Z,95333.94
2023-01-11T05:32:05.750Z,95333.13
2023-01-11T05:34:32.487Z,95331.88
2023-01-11T05:36:59.114Z,95334.34
2023-01-11T05:39:25.793Z,95329.66
2023-01-11T05:41:52.522Z,95335.84
2023-01-11T05:44:37.862Z,95338.47
2023-01-11T05:47:04.545Z,95328.00
2023-01-11T05:49:31.111Z,95328.13
2023-01-11T05:51:57.666Z,95335.13
2023-01-11T05:54:24.269Z,95334.28
2023-01-11T05:56:50.819Z,95333.88
2023-01-11T05:59:17.480Z,95340.31
2023-01-11T06:01:44.060Z,95334.44
2023-01-11T06:04:10.730Z,95339.75
2023-01-11T06:06:37.385Z,95343.22
2023-01-11T06:09:04.002Z,95337.72
2023-01-11T06:11:30.758Z,95339.03
2023-01-11T06:13:57.392Z,95338.56
2023-01-11T06:16:24.111Z,95329.16
2023-01-11T06:18:52.391Z,95333.78
2023-01-11T06:21:19.830Z,95337.59
2023-01-11T06:23:48.311Z,95332.28
2023-01-11T06:26:16.638Z,95332.66
2023-01-11T06:28:43.915Z,95329.53
2023-01-11T06:31:10.644Z,95324.38
2023-01-11T06:33:37.640Z,95319.28
2023-01-11T06:36:07.708Z,95321.09
2023-01-11T06:38:34.680Z,95326.28
2023-01-11T06:41:03.574Z,95324.84
2023-01-11T06:43:31.402Z,95331.03
2023-01-11T06:45:59.192Z,95327.75
2023-01-11T06:48:26.927Z,95330.28
2023-01-11T06:50:55.873Z,95329.75
2023-01-11T06:53:23.620Z,95328.72
2023-01-11T06:55:52.190Z,95330.22
2023-01-11T06:58:19.111Z,95328.88
2023-01-11T07:00:46.274Z,95338.38
2023-01-11T07:03:13.242Z,95336.81
2023-01-11T07:05:40.402Z,95339.16
2023-01-11T07:08:06.969Z,95334.88
2023-01-11T07:10:33.638Z,95340.94
2023-01-11T07:13:00.294Z,95332.09
2023-01-11T07:15:26.953Z,95333.28
2023-01-11T07:17:58.606Z,95322.75
2023-01-11T07:20:26.479Z,95331.75
2023-01-11T07:22:56.937Z,95348.56
2023-01-11T07:25:23.596Z,95333.66
2023-01-11T07:27:54.880Z,95333.38
2023-01-11T07:30:21.453Z,95329.91
2023-01-11T07:32:47.964Z,95330.63
2023-01-11T07:35:14.548Z,95334.34
2023-01-11T07:37:41.493Z,95332.09
2023-01-11T07:40:08.759Z,95330.91
2023-01-11T07:42:53.658Z,95339.06
2023-01-11T07:45:20.208Z,95336.66
2023-01-11T07:47:51.147Z,95337.78
2023-01-11T07:50:17.972Z,95337.78
2023-01-11T07:52:48.467Z,95341.88
2023-01-11T07:55:16.131Z,95335.22
2023-01-11T07:57:42.810Z,95333.31
2023-01-11T08:00:10.254Z,95329.25
2023-01-11T08:02:39.615Z,95322.44
2023-01-11T08:05:06.639Z,95320.66
2023-01-11T08:07:33.256Z,95322.16
2023-01-11T08:09:59.781Z,95316.84
2023-01-11T08:12:45.000Z,95319.97
2023-01-11T08:15:14.049Z,95317.81
2023-01-11T08:17:40.608Z,95323.28
2023-01-11T08:20:07.339Z,95314.84
2023-01-11T08:22:34.231Z,95326.53
2023-01-11T08:25:00.763Z,95325.38
2023-01-11T08:27:27.295Z,95321.22
2023-01-11T08:29:53.811Z,95313.94
2023-01-11T08:32:20.308Z,95312.72
2023-01-11T08:34:47.861Z,95310.31
2023-01-11T08:37:14.466Z,95301.00
2023-01-11T08:39:41.072Z,95312.09
2023-01-11T08:42:07.650Z,95307.22
2023-01-11T08:44:34.783Z,95306.00
2023-01-11T08:47:03.187Z,95307.78
2023-01-11T08:49:30.506Z,95288.88
2023-01-11T08:51:57.295Z,95285.59
2023-01-11T08:54:24.850Z,95280.97
2023-01-11T08:56:51.396Z,95280.09
2023-01-11T08:59:19.772Z,95283.22
2023-01-11T09:01:46.459Z,95279.19
2023-01-11T09:04:24.237Z,95277.56
2023-01-11T09:06:52.533Z,95279.91
2023-01-11T09:09:19.110Z,95283.00
2023-01-11T09:11:56.521Z,95281.25
2023-01-11T09:14:25.000Z,95279.63
2023-01-11T09:16:52.956Z,95274.38
2023-01-11T09:19:19.775Z,95272.75
2023-01-11T09:21:46.625Z,95268.50
2023-01-11T09:24:14.210Z,95276.84
2023-01-11T09:26:43.303Z,95278.00
2023-01-11T09:29:11.144Z,95273.97
2023-01-11T09:31:38.116Z,95275.97
2023-01-11T09:34:05.400Z,95275.34
2023-01-11T09:36:33.255Z,95278.03
2023-01-11T09:39:02.143Z,95267.84
2023-01-11T09:41:50.829Z,95261.94
2023-01-11T09:44:23.182Z,95254.56
2023-01-11T09:46:56.004Z,95253.75
2023-01-11T09:49:28.109Z,95249.13
2023-01-11T09:52:13.103Z,95248.06
2023-01-11T09:54:39.991Z,95255.25
2023-01-11T09:57:23.719Z,95252.25
2023-01-11T09:59:59.002Z,95254.97
2023-01-11T10:02:44.725Z,95256.75
2023-01-11T10:05:29.772Z,95252.56
2023-01-11T10:18:22.405Z,95257.69
2023-01-11T10:18:26.620Z,95255.00
2023-01-11T10:20:41.612Z,95255.56
2023-01-11T10:23:18.523Z,95242.56
2023-01-11T10:25:51.492Z,95240.47
2023-01-11T10:28:26.791Z,95241.38
2023-01-11T10:30:55.848Z,95237.81
2023-01-11T10:34:00.352Z,95239.09
2023-01-11T10:37:07.338Z,95240.91
2023-01-11T10:40:34.977Z,95242.25
2023-01-11T10:43:12.814Z,95238.25
2023-01-11T10:45:53.229Z,95246.38
2023-01-11T10:48:34.167Z,95237.16
2023-01-11T10:51:13.223Z,95233.34
2023-01-11T10:54:00.945Z,95225.13
2023-01-11T10:56:27.466Z,95217.00
2023-01-11T10:59:04.060Z,95228.34
2023-01-11T11:01:45.139Z,95219.22
2023-01-11T11:04:21.197Z,95211.19
2023-01-11T11:07:15.651Z,95206.53
2023-01-11T11:09:47.971Z,95205.91
2023-01-11T11:12:36.802Z,95205.31
2023-01-11T11:15:20.239Z,95198.00
2023-01-11T11:17:50.756Z,95190.91
2023-01-11T11:20:21.086Z,95192.56
2023-01-11T11:22:52.585Z,95197.25
2023-01-11T11:25:31.276Z,95188.66
2023-01-11T11:28:14.588Z,95195.41
2023-01-11T11:30:46.983Z,95188.81
2023-01-11T11:33:13.987Z,95180.63
2023-01-11T11:35:42.161Z,95185.53
2023-01-11T11:38:22.020Z,95180.91
2023-01-11T11:40:58.198Z,95177.16
2023-01-11T11:43:27.004Z,95167.00
2023-01-11T11:45:59.320Z,95174.38
2023-01-11T11:48:28.985Z,95167.38
2023-01-11T11:50:58.106Z,95162.75
2023-01-11T11:53:43.111Z,95159.25
2023-01-11T11:56:36.006Z,95155.09
2023-01-11T11:59:09.666Z,95150.34
2023-01-11T12:01:47.167Z,95143.06
2023-01-11T12:04:24.048Z,95148.56
2023-01-11T12:07:19.190Z,95150.53
2023-01-11T12:09:56.777Z,95141.13
2023-01-11T12:12:26.365Z,95141.06
2023-01-11T12:15:09.159Z,95139.22
2023-01-11T12:17:36.083Z,95136.00
2023-01-11T12:20:02.730Z,95136.94
2023-01-11T12:22:29.433Z,95138.03
2023-01-11T12:25:21.536Z,95136.34
2023-01-11T12:28:02.052Z,95131.53
2023-01-11T12:30:46.364Z,95127.31
2023-01-11T12:33:28.709Z,95126.13
2023-01-11T12:36:05.335Z,95117.44
2023-01-11T12:39:05.039Z,95116.19
2023-01-11T12:41:50.317Z,95121.28
2023-01-11T12:45:01.682Z,95120.50
2023-01-11T12:47:42.791Z,95123.28
2023-01-11T12:50:24.743Z,95119.50
2023-01-11T12:53:03.664Z,95111.22
2023-01-11T12:55:49.279Z,95111.91
2023-01-11T12:58:24.288Z,95105.47
2023-01-11T13:01:09.661Z,95100.69
2023-01-11T13:03:45.296Z,95099.94
2023-01-11T13:06:17.073Z,95102.34
2023-01-11T13:08:56.171Z,95103.53
2023-01-11T13:11:45.825Z,95100.91
2023-01-11T13:14:43.773Z,95094.84
2023-01-11T13:17:37.072Z,95098.25
2023-01-11T13:20:21.998Z,95095.75
2023-01-11T13:22:54.849Z,95091.91
2023-01-11T13:25:28.479Z,95093.25
2023-01-11T13:27:57.731Z,95098.25
2023-01-11T13:30:25.217Z,95092.09
2023-01-11T13:33:17.159Z,95089.19
2023-01-11T13:36:01.792Z,95092.63
2023-01-11T13:38:35.078Z,95090.75
2023-01-11T13:41:18.457Z,95093.69
2023-01-11T13:43:57.725Z,95099.22
2023-01-11T13:46:34.848Z,95105.31
2023-01-11T13:49:18.275Z,95111.97
2023-01-11T13:51:56.906Z,95113.22
2023-01-11T13:54:34.614Z,95110.56
2023-01-11T13:57:06.964Z,95121.47
2023-01-11T13:59:45.571Z,95125.56
2023-01-11T14:02:39.631Z,95139.88
2023-01-11T14:05:18.766Z,95130.63
2023-01-11T14:08:06.920Z,95131.75
2023-01-11T14:10:44.896Z,95135.94
2023-01-11T14:13:14.301Z,95130.34
2023-01-11T14:15:47.730Z,95136.56
2023-01-11T14:18:38.276Z,95135.84
2023-01-11T14:21:43.007Z,95132.81
2023-01-11T14:24:11.391Z,95150.69
2023-01-11T14:27:03.887Z,95164.59
2023-01-11T14:29:39.187Z,95168.63
2023-01-11T14:32:45.694Z,95176.53
2023-01-11T14:35:18.766Z,95167.72
2023-01-11T14:38:07.193Z,95172.47
2023-01-11T14:40:51.448Z,95177.28
2023-01-11T14:43:41.056Z,95181.69
2023-01-11T14:46:19.351Z,95172.97
2023-01-11T14:48:48.943Z,95184.97
2023-01-11T14:51:34.328Z,95168.81
2023-01-11T14:54:08.243Z,95168.69
2023-01-11T14:56:46.445Z,95178.25
2023-01-11T14:59:31.326Z,95160.66
2023-01-11T15:02:04.232Z,95172.44
2023-01-11T15:04:38.835Z,95171.63
2023-01-11T15:07:43.817Z,95175.59
2023-01-11T15:10:30.258Z,95198.41
2023-01-11T15:12:58.224Z,95189.03
2023-01-11T15:15:51.111Z,95185.28
2023-01-11T15:18:24.077Z,95190.19
2023-01-11T15:21:02.059Z,95189.38
2023-01-11T15:23:37.461Z,95190.19
2023-01-11T15:26:07.894Z,95204.94
2023-01-11T15:28:55.403Z,95199.88
2023-01-11T15:31:47.712Z,95204.31
2023-01-11T15:34:23.824Z,95201.19
2023-01-11T15:37:03.840Z,95204.63
2023-01-11T15:39:54.326Z,95200.06
2023-01-11T15:42:45.137Z,95200.38
2023-01-11T15:45:11.602Z,95207.09
2023-01-11T15:48:16.466Z,95216.16
2023-01-11T15:50:45.982Z,95214.50
2023-01-11T15:53:38.339Z,95220.41
2023-01-11T15:56:41.777Z,95234.81
2023-01-11T15:59:49.855Z,95238.09
2023-01-11T16:02:40.952Z,95250.72
2023-01-11T16:05:18.387Z,95243.41
2023-01-11T16:07:50.215Z,95251.25
2023-01-11T16:10:53.895Z,95255.59
2023-01-11T16:13:48.540Z,95253.44
2023-01-11T16:16:21.328Z,95266.00
2023-01-11T16:18:58.393Z,95274.69
2023-01-11T16:21:37.484Z,95283.75
2023-01-11T16:24:17.454Z,95276.00
2023-01-11T16:26:44.558Z,95278.69
2023-01-11T16:29:18.332Z,95285.69
2023-01-11T16:31:54.051Z,95291.78
2023-01-11T16:34:20.724Z,95302.09
2023-01-11T16:36:49.084Z,95279.44
2023-01-11T16:39:22.995Z,95297.16
2023-01-11T16:41:58.389Z,95298.41
2023-01-11T16:44:33.839Z,95296.56
2023-01-11T16:47:26.697Z,95307.72
2023-01-11T16:50:20.788Z,95301.72
2023-01-11T16:52:54.966Z,95306.06
2023-01-11T16:55:26.737Z,95309.47
2023-01-11T16:57:58.276Z,95316.38
2023-01-11T17:00:35.956Z,95326.28
2023-01-11T17:03:24.405Z,95326.88
2023-01-11T17:05:56.888Z,95328.53
2023-01-11T17:08:29.431Z,95325.69
2023-01-11T17:11:04.295Z,95328.53
2023-01-11T17:13:58.971Z,95331.47
2023-01-11T17:16:38.187Z,95329.97
2023-01-11T17:19:32.269Z,95333.41
2023-01-11T17:22:17.054Z,95335.31
2023-01-11T17:24:51.844Z,95339.31
2023-01-11T17:27:28.199Z,95348.81
2023-01-11T17:29:57.076Z,95348.34
2023-01-11T17:32:37.819Z,95359.75
2023-01-11T17:35:13.791Z,95358.41
2023-01-11T17:37:41.149Z,95363.41
2023-01-11T17:40:21.517Z,95364.56
2023-01-11T17:43:07.262Z,95361.75
2023-01-11T17:45:34.713Z,95373.75
2023-01-11T17:48:13.343Z,95373.66
2023-01-11T17:50:47.588Z,95382.97
2023-01-11T17:53:18.131Z,95392.03
2023-01-11T17:56:02.159Z,95393.34
2023-01-11T17:58:36.319Z,95399.38
2023-01-11T18:01:07.717Z,95396.66
2023-01-11T18:03:44.998Z,95405.88
2023-01-11T18:06:18.347Z,95412.97
2023-01-11T18:08:53.459Z,95407.00
2023-01-11T18:11:51.444Z,95408.88
2023-01-11T18:14:41.386Z,95442.94
2023-01-11T18:17:40.641Z,95448.13
2023-01-11T18:20:16.106Z,95445.22
2023-01-11T18:22:56.141Z,95450.75
2023-01-11T18:25:24.753Z,95454.31
2023-01-11T18:27:51.599Z,95447.13
2023-01-11T18:30:30.289Z,95459.34
2023-01-11T18:33:03.770Z,95464.50
2023-01-11T18:35:30.725Z,95460.81
2023-01-11T18:37:57.288Z,95457.63
2023-01-11T18:40:23.818Z,95454.56
2023-01-11T18:42:53.404Z,95457.69
2023-01-11T18:45:21.802Z,95452.78
2023-01-11T18:47:48.418Z,95462.28
2023-01-11T18:50:14.999Z,95471.34
2023-01-11T18:52:41.590Z,95476.53
2023-01-11T18:55:11.503Z,95487.41
2023-01-11T18:57:38.105Z,95483.63
2023-01-11T19:00:05.019Z,95494.81
2023-01-11T19:02:42.157Z,95485.81
2023-01-11T19:05:14.784Z,95481.00
2023-01-11T19:07:41.619Z,95483.63
2023-01-11T19:10:09.375Z,95484.22
2023-01-11T19:12:35.954Z,95482.63
2023-01-11T19:15:02.538Z,95480.69
2023-01-11T19:17:29.163Z,95493.44
2023-01-11T19:19:55.735Z,95498.41
2023-01-11T19:22:26.079Z,95493.28
2023-01-11T19:24:53.811Z,95499.25
2023-01-11T19:27:20.567Z,95499.63
2023-01-11T19:29:47.252Z,95501.50
2023-01-11T19:32:15.667Z,95507.88
2023-01-11T19:34:42.747Z,95505.91
2023-01-11T19:37:09.288Z,95508.72
2023-01-11T19:39:36.286Z,95506.75
2023-01-11T19:42:03.136Z,95509.84
2023-01-11T19:44:31.129Z,95507.66
2023-01-11T19:47:10.333Z,95518.06
2023-01-11T19:49:38.987Z,95521.09
2023-01-11T19:52:12.113Z,95516.09
2023-01-11T19:54:42.926Z,95527.13
2023-01-11T19:57:11.592Z,95526.41
2023-01-11T19:59:38.273Z,95531.38
2023-01-11T20:02:05.391Z,95543.44
2023-01-11T20:04:32.523Z,95542.88
2023-01-11T20:06:59.588Z,95536.28
2023-01-11T20:09:26.157Z,95535.75
2023-01-11T20:11:53.293Z,95538.91
2023-01-11T20:14:20.247Z,95537.03
2023-01-11T20:16:46.845Z,95542.31
2023-01-11T20:19:13.434Z,95543.28
2023-01-11T20:21:39.961Z,95547.09
2023-01-11T20:24:06.871Z,95549.66
2023-01-11T20:26:36.484Z,95549.69
2023-01-11T20:29:03.599Z,95557.78
2023-01-11T20:31:32.151Z,95566.31
2023-01-11T20:34:00.803Z,95573.78
2023-01-11T20:36:28.139Z,95564.91
2023-01-11T20:38:55.782Z,95569.75
2023-01-11T20:41:48.185Z,95569.47
2023-01-11T20:44:24.969Z,95569.19
2023-01-11T20:46:53.179Z,95561.75
2023-01-11T20:49:25.778Z,95576.66
2023-01-11T20:51:52.400Z,95583.13
2023-01-11T20:54:19.337Z,95581.75
2023-01-11T20:56:46.925Z,95579.97
2023-01-11T20:59:17.229Z,95577.53
2023-01-11T21:01:44.034Z,95569.56
2023-01-11T21:04:11.740Z,95571.56
2023-01-11T21:06:41.246Z,95578.84
2023-01-11T21:09:09.859Z,95586.53
2023-01-11T21:14:04.431Z,95573.81
2023-01-11T21:16:31.756Z,95581.59
2023-01-11T21:19:03.395Z,95578.09
2023-01-11T21:21:32.147Z,95576.09
2023-01-11T21:24:01.313Z,95570.47
2023-01-11T21:26:29.164Z,95568.78
2023-01-11T21:29:01.136Z,95569.53
2023-01-11T21:31:29.518Z,95563.63
2023-01-11T21:33:56.440Z,95583.84
2023-01-11T21:36:25.005Z,95574.56
2023-01-11T21:38:53.128Z,95584.06
2023-01-11T21:41:42.478Z,95590.06
2023-01-11T21:44:10.479Z,95591.84
2023-01-11T21:46:37.431Z,95596.94
2023-01-11T21:49:04.639Z,95602.25
2023-01-11T21:51:31.670Z,95599.22
2023-01-11T21:53:59.313Z,95588.78
2023-01-11T21:56:26.386Z,95602.19
2023-01-11T21:58:53.017Z,95615.69
2023-01-11T22:01:21.653Z,95612.63
2023-01-11T22:03:48.616Z,95610.59
2023-01-11T22:06:15.920Z,95614.25
2023-01-11T22:08:46.539Z,95620.34
2023-01-11T22:11:15.112Z,95630.59
2023-01-11T22:13:42.821Z,95630.09
2023-01-11T22:16:14.557Z,95632.25
2023-01-11T22:18:41.927Z,95634.47
2023-01-11T22:21:10.122Z,95628.06
2023-01-11T22:23:37.047Z,95643.31
2023-01-11T22:26:11.862Z,95639.34
2023-01-11T22:28:57.505Z,95646.19
2023-01-11T22:31:25.473Z,95642.50
2023-01-11T22:33:52.188Z,95653.69
2023-01-11T22:36:19.544Z,95648.81
2023-01-11T22:38:46.811Z,95648.25
2023-01-11T22:41:14.787Z,95662.25
2023-01-11T22:43:43.064Z,95656.81
2023-01-11T22:46:15.196Z,95670.91
2023-01-11T22:48:41.809Z,95667.03
2023-01-11T22:51:10.260Z,95672.84
2023-01-11T22:53:41.937Z,95669.72
2023-01-11T22:56:09.582Z,95673.09
2023-01-11T22:58:36.546Z,95682.75
2023-01-11T23:01:13.401Z,95684.41
2023-01-11T23:03:41.015Z,95683.03
2023-01-11T23:06:08.750Z,95674.84
2023-01-11T23:08:41.527Z,95683.81
2023-01-11T23:11:10.869Z,95674.53
2023-01-11T23:13:52.568Z,95676.50
2023-01-11T23:16:19.746Z,95683.28
2023-01-11T23:18:46.339Z,95680.31
2023-01-11T23:21:12.877Z,95687.84
2023-01-11T23:23:40.227Z,95685.50
2023-01-11T23:26:07.604Z,95692.28
2023-01-11T23:28:34.986Z,95696.09
2023-01-11T23:31:12.459Z,95696.78
2023-01-11T23:33:39.007Z,95706.28
2023-01-11T23:36:06.035Z,95704.47
2023-01-11T23:38:32.881Z,95714.72
2023-01-11T23:41:29.636Z,95721.66
2023-01-11T23:43:56.644Z,95723.44
2023-01-11T23:46:42.480Z,95717.34
2023-01-11T23:49:10.396Z,95715.94
2023-01-11T23:51:37.722Z,95726.97
2023-01-11T23:54:05.457Z,95724.22
2023-01-11T23:56:33.276Z,95725.84
2023-01-11T23:59:00.167Z,95733.38
